sensor_id;sensor_type;location;lat;lon;timestamp;P1;durP1;ratioP1;P2;durP2;ratioP2
28774;SDS011;15926;51.348;6.596;2022-12-18T05:03:52;12.77;;;5.53;;
28774;SDS011;15926;51.348;6.596;2022-12-18T05:06:19;11.32;;;5.38;;
28774;SDS011;15926;51.348;6.596;2022-12-18T05:08:45;10.93;;;5.57;;
28774;SDS011;15926;51.348;6.596;2022-12-18T05:11:12;11.05;;;5.53;;
28774;SDS011;15926;51.348;6.596;2022-12-18T05:16:07;10.80;;;5.72;;
28774;SDS011;15926;51.348;6.596;2022-12-18T05:18:33;14.88;;;6.97;;
28774;SDS011;15926;51.348;6.596;2022-12-18T05:21:00;14.48;;;7.63;;
28774;SDS011;15926;51.348;6.596;2022-12-18T05:23:26;14.35;;;6.65;;
28774;SDS011;15926;51.348;6.596;2022-12-18T05:28:22;16.55;;;6.22;;
28774;SDS011;15926;51.348;6.596;2022-12-18T05:30:53;12.73;;;6.00;;
28774;SDS011;15926;51.348;6.596;2022-12-18T05:33:20;11.50;;;6.55;;
28774;SDS011;15926;51.348;6.596;2022-12-18T05:35:58;13.65;;;5.78;;
28774;SDS011;15926;51.348;6.596;2022-12-18T05:38:32;11.25;;;5.30;;
28774;SDS011;15926;51.348;6.596;2022-12-18T05:41:01;12.98;;;5.53;;
28774;SDS011;15926;51.348;6.596;2022-12-18T05:43:27;10.35;;;5.60;;
28774;SDS011;15926;51.348;6.596;2022-12-18T05:45:54;12.75;;;6.03;;
28774;SDS011;15926;51.348;6.596;2022-12-18T05:48:21;14.63;;;5.72;;
28774;SDS011;15926;51.348;6.596;2022-12-18T05:50:47;12.90;;;5.75;;
28774;SDS011;15926;51.348;6.596;2022-12-18T05:53:14;9.48;;;5.47;;
28774;SDS011;15926;51.348;6.596;2022-12-18T05:55:41;11.40;;;5.78;;
28774;SDS011;15926;51.348;6.596;2022-12-18T05:58:08;9.95;;;6.10;;
28774;SDS011;15926;51.348;6.596;2022-12-18T06:00:35;10.82;;;5.57;;
28774;SDS011;15926;51.348;6.596;2022-12-18T06:03:04;12.02;;;5.63;;
28774;SDS011;15926;51.348;6.596;2022-12-18T06:05:34;10.25;;;5.57;;
28774;SDS011;15926;51.348;6.596;2022-12-18T06:08:00;9.73;;;5.35;;
28774;SDS011;15926;51.348;6.596;2022-12-18T06:10:26;11.55;;;5.55;;
28774;SDS011;15926;51.348;6.596;2022-12-18T06:12:52;9.07;;;4.95;;
28774;SDS011;15926;51.348;6.596;2022-12-18T06:15:18;11.25;;;5.85;;
28774;SDS011;15926;51.348;6.596;2022-12-18T06:17:44;13.45;;;5.75;;
28774;SDS011;15926;51.348;6.596;2022-12-18T06:20:10;8.35;;;5.30;;
28774;SDS011;15926;51.348;6.596;2022-12-18T06:22:36;10.68;;;5.18;;
28774;SDS011;15926;51.348;6.596;2022-12-18T06:25:02;11.82;;;5.60;;
28774;SDS011;15926;51.348;6.596;2022-12-18T06:27:28;12.60;;;5.38;;
28774;SDS011;15926;51.348;6.596;2022-12-18T06:29:54;14.85;;;6.28;;
28774;SDS011;15926;51.348;6.596;2022-12-18T06:32:20;9.23;;;5.65;;
28774;SDS011;15926;51.348;6.596;2022-12-18T06:34:46;10.60;;;5.03;;
28774;SDS011;15926;51.348;6.596;2022-12-18T06:37:12;9.25;;;4.68;;
28774;SDS011;15926;51.348;6.596;2022-12-18T06:39:38;9.57;;;5.25;;
28774;SDS011;15926;51.348;6.596;2022-12-18T06:42:04;9.82;;;5.07;;
28774;SDS011;15926;51.348;6.596;2022-12-18T06:44:30;10.90;;;5.32;;
28774;SDS011;15926;51.348;6.596;2022-12-18T06:46:56;8.75;;;4.30;;
28774;SDS011;15926;51.348;6.596;2022-12-18T06:49:22;8.73;;;4.60;;
28774;SDS011;15926;51.348;6.596;2022-12-18T06:51:49;12.98;;;5.63;;
28774;SDS011;15926;51.348;6.596;2022-12-18T06:54:15;11.00;;;5.13;;
28774;SDS011;15926;51.348;6.596;2022-12-18T06:56:41;13.05;;;5.95;;
28774;SDS011;15926;51.348;6.596;2022-12-18T06:59:07;10.27;;;5.25;;
28774;SDS011;15926;51.348;6.596;2022-12-18T07:01:33;8.95;;;5.55;;
28774;SDS011;15926;51.348;6.596;2022-12-18T07:03:59;11.45;;;5.60;;
28774;SDS011;15926;51.348;6.596;2022-12-18T07:06:25;10.85;;;5.50;;
28774;SDS011;15926;51.348;6.596;2022-12-18T07:08:53;13.52;;;5.38;;
28774;SDS011;15926;51.348;6.596;2022-12-18T07:11:21;10.70;;;5.35;;
28774;SDS011;15926;51.348;6.596;2022-12-18T07:13:51;12.55;;;5.53;;
28774;SDS011;15926;51.348;6.596;2022-12-18T07:16:18;10.00;;;4.93;;
28774;SDS011;15926;51.348;6.596;2022-12-18T07:18:44;11.20;;;4.80;;
28774;SDS011;15926;51.348;6.596;2022-12-18T07:21:12;9.40;;;4.95;;
28774;SDS011;15926;51.348;6.596;2022-12-18T07:23:38;11.25;;;5.43;;
28774;SDS011;15926;51.348;6.596;2022-12-18T07:26:06;10.82;;;5.50;;
28774;SDS011;15926;51.348;6.596;2022-12-18T07:28:33;16.70;;;5.57;;
28774;SDS011;15926;51.348;6.596;2022-12-18T07:31:03;11.48;;;5.10;;
28774;SDS011;15926;51.348;6.596;2022-12-18T07:33:29;9.32;;;4.80;;
28774;SDS011;15926;51.348;6.596;2022-12-18T07:35:55;14.82;;;6.05;;
28774;SDS011;15926;51.348;6.596;2022-12-18T07:38:21;10.48;;;5.07;;
28774;SDS011;15926;51.348;6.596;2022-12-18T07:40:47;10.25;;;5.32;;
28774;SDS011;15926;51.348;6.596;2022-12-18T07:43:13;10.10;;;5.68;;
28774;SDS011;15926;51.348;6.596;2022-12-18T07:45:39;12.30;;;5.22;;
28774;SDS011;15926;51.348;6.596;2022-12-18T07:48:05;11.68;;;5.47;;
28774;SDS011;15926;51.348;6.596;2022-12-18T07:50:31;11.95;;;5.38;;
28774;SDS011;15926;51.348;6.596;2022-12-18T07:52:57;11.73;;;6.07;;
28774;SDS011;15926;51.348;6.596;2022-12-18T07:55:23;12.27;;;5.57;;
28774;SDS011;15926;51.348;6.596;2022-12-18T07:57:49;12.60;;;5.65;;
28774;SDS011;15926;51.348;6.596;2022-12-18T08:00:15;11.63;;;5.80;;
28774;SDS011;15926;51.348;6.596;2022-12-18T08:02:41;10.77;;;5.15;;
28774;SDS011;15926;51.348;6.596;2022-12-18T08:05:07;11.27;;;5.65;;
28774;SDS011;15926;51.348;6.596;2022-12-18T08:07:33;12.13;;;5.13;;
28774;SDS011;15926;51.348;6.596;2022-12-18T08:09:59;13.73;;;6.22;;
28774;SDS011;15926;51.348;6.596;2022-12-18T08:12:25;10.57;;;5.72;;
28774;SDS011;15926;51.348;6.596;2022-12-18T08:14:51;11.45;;;5.70;;
28774;SDS011;15926;51.348;6.596;2022-12-18T08:17:17;13.82;;;5.88;;
28774;SDS011;15926;51.348;6.596;2022-12-18T08:19:44;13.23;;;6.22;;
28774;SDS011;15926;51.348;6.596;2022-12-18T08:22:10;11.32;;;5.45;;
28774;SDS011;15926;51.348;6.596;2022-12-18T08:24:36;11.88;;;5.53;;
28774;SDS011;15926;51.348;6.596;2022-12-18T08:27:02;13.70;;;5.18;;
28774;SDS011;15926;51.348;6.596;2022-12-18T08:29:28;12.82;;;5.22;;
28774;SDS011;15926;51.348;6.596;2022-12-18T08:31:55;12.38;;;6.53;;
28774;SDS011;15926;51.348;6.596;2022-12-18T08:34:21;13.07;;;6.78;;
28774;SDS011;15926;51.348;6.596;2022-12-18T08:36:47;14.25;;;6.18;;
28774;SDS011;15926;51.348;6.596;2022-12-18T08:39:13;15.57;;;7.28;;
28774;SDS011;15926;51.348;6.596;2022-12-18T08:41:41;12.13;;;5.95;;
28774;SDS011;15926;51.348;6.596;2022-12-18T08:44:07;14.05;;;6.05;;
28774;SDS011;15926;51.348;6.596;2022-12-18T08:46:52;13.45;;;5.93;;
28774;SDS011;15926;51.348;6.596;2022-12-18T08:49:18;9.75;;;5.13;;
28774;SDS011;15926;51.348;6.596;2022-12-18T08:51:44;12.25;;;6.45;;
28774;SDS011;15926;51.348;6.596;2022-12-18T08:54:11;11.70;;;6.13;;
28774;SDS011;15926;51.348;6.596;2022-12-18T08:56:38;11.45;;;5.50;;
28774;SDS011;15926;51.348;6.596;2022-12-18T08:59:04;12.50;;;6.35;;
28774;SDS011;15926;51.348;6.596;2022-12-18T09:01:30;9.55;;;5.70;;
28774;SDS011;15926;51.348;6.596;2022-12-18T09:03:56;9.77;;;5.72;;
28774;SDS011;15926;51.348;6.596;2022-12-18T09:06:22;13.65;;;5.63;;
28774;SDS011;15926;51.348;6.596;2022-12-18T09:08:48;12.15;;;5.82;;
28774;SDS011;15926;51.348;6.596;2022-12-18T09:11:18;10.65;;;5.65;;
28774;SDS011;15926;51.348;6.596;2022-12-18T09:13:44;14.25;;;6.07;;
28774;SDS011;15926;51.348;6.596;2022-12-18T09:16:10;13.02;;;5.60;;
28774;SDS011;15926;51.348;6.596;2022-12-18T09:18:36;11.57;;;5.80;;
28774;SDS011;15926;51.348;6.596;2022-12-18T09:21:09;11.00;;;5.22;;
28774;SDS011;15926;51.348;6.596;2022-12-18T09:23:35;11.55;;;5.80;;
28774;SDS011;15926;51.348;6.596;2022-12-18T09:26:01;14.40;;;6.80;;
28774;SDS011;15926;51.348;6.596;2022-12-18T09:28:27;10.73;;;5.43;;
28774;SDS011;15926;51.348;6.596;2022-12-18T09:30:54;12.52;;;5.75;;
28774;SDS011;15926;51.348;6.596;2022-12-18T09:33:20;11.27;;;6.72;;
28774;SDS011;15926;51.348;6.596;2022-12-18T09:35:46;10.65;;;5.50;;
28774;SDS011;15926;51.348;6.596;2022-12-18T09:38:13;10.82;;;5.70;;
28774;SDS011;15926;51.348;6.596;2022-12-18T09:40:41;11.13;;;6.05;;
28774;SDS011;15926;51.348;6.596;2022-12-18T09:43:09;15.02;;;5.95;;
28774;SDS011;15926;51.348;6.596;2022-12-18T09:45:40;8.82;;;5.28;;
28774;SDS011;15926;51.348;6.596;2022-12-18T09:48:14;11.50;;;5.40;;
28774;SDS011;15926;51.348;6.596;2022-12-18T09:50:41;11.27;;;5.38;;
28774;SDS011;15926;51.348;6.596;2022-12-18T09:53:20;11.10;;;5.30;;
28774;SDS011;15926;51.348;6.596;2022-12-18T09:55:47;11.82;;;6.10;;
28774;SDS011;15926;51.348;6.596;2022-12-18T10:00:43;12.43;;;5.43;;
28774;SDS011;15926;51.348;6.596;2022-12-18T10:03:10;11.70;;;5.70;;
28774;SDS011;15926;51.348;6.596;2022-12-18T10:09:01;13.45;;;6.03;;
28774;SDS011;15926;51.348;6.596;2022-12-18T10:11:21;11.70;;;5.90;;
28774;SDS011;15926;51.348;6.596;2022-12-18T10:21:21;9.85;;;5.65;;
28774;SDS011;15926;51.348;6.596;2022-12-18T10:24:04;9.40;;;5.63;;
28774;SDS011;15926;51.348;6.596;2022-12-18T10:26:34;14.32;;;5.43;;
28774;SDS011;15926;51.348;6.596;2022-12-18T10:29:00;11.13;;;6.32;;
28774;SDS011;15926;51.348;6.596;2022-12-18T10:31:27;9.18;;;5.47;;
28774;SDS011;15926;51.348;6.596;2022-12-18T10:33:53;13.30;;;6.32;;
28774;SDS011;15926;51.348;6.596;2022-12-18T10:36:20;10.95;;;5.95;;
28774;SDS011;15926;51.348;6.596;2022-12-18T10:38:46;12.07;;;6.13;;
28774;SDS011;15926;51.348;6.596;2022-12-18T10:43:47;9.57;;;5.00;;
28774;SDS011;15926;51.348;6.596;2022-12-18T10:46:16;9.32;;;5.53;;
28774;SDS011;15926;51.348;6.596;2022-12-18T10:51:24;13.55;;;6.22;;
28774;SDS011;15926;51.348;6.596;2022-12-18T10:56:24;9.70;;;5.07;;
28774;SDS011;15926;51.348;6.596;2022-12-18T10:58:58;9.13;;;5.78;;
28774;SDS011;15926;51.348;6.596;2022-12-18T11:01:26;12.85;;;6.15;;
28774;SDS011;15926;51.348;6.596;2022-12-18T11:06:22;9.27;;;5.38;;
28774;SDS011;15926;51.348;6.596;2022-12-18T11:08:59;12.15;;;5.97;;
28774;SDS011;15926;51.348;6.596;2022-12-18T11:11:25;14.50;;;6.00;;
28774;SDS011;15926;51.348;6.596;2022-12-18T11:14:25;12.25;;;5.75;;
28774;SDS011;15926;51.348;6.596;2022-12-18T11:16:47;12.20;;;5.85;;
28774;SDS011;15926;51.348;6.596;2022-12-18T11:19:20;8.30;;;5.70;;
28774;SDS011;15926;51.348;6.596;2022-12-18T11:21:47;9.82;;;5.97;;
28774;SDS011;15926;51.348;6.596;2022-12-18T11:24:19;12.48;;;6.57;;
28774;SDS011;15926;51.348;6.596;2022-12-18T11:26:46;12.32;;;6.85;;
28774;SDS011;15926;51.348;6.596;2022-12-18T11:29:16;9.85;;;5.80;;
28774;SDS011;15926;51.348;6.596;2022-12-18T11:31:42;10.73;;;6.20;;
28774;SDS011;15926;51.348;6.596;2022-12-18T11:34:13;11.13;;;5.63;;
28774;SDS011;15926;51.348;6.596;2022-12-18T11:36:43;9.85;;;6.10;;
28774;SDS011;15926;51.348;6.596;2022-12-18T11:47:21;13.73;;;6.45;;
28774;SDS011;15926;51.348;6.596;2022-12-18T11:49:50;15.85;;;7.20;;
28774;SDS011;15926;51.348;6.596;2022-12-18T11:55:04;11.55;;;6.00;;
28774;SDS011;15926;51.348;6.596;2022-12-18T11:58:09;18.17;;;7.53;;
28774;SDS011;15926;51.348;6.596;2022-12-18T12:00:26;14.50;;;6.53;;
28774;SDS011;15926;51.348;6.596;2022-12-18T12:05:38;13.47;;;6.90;;
28774;SDS011;15926;51.348;6.596;2022-12-18T12:08:09;12.07;;;6.32;;
28774;SDS011;15926;51.348;6.596;2022-12-18T12:13:23;11.70;;;7.15;;
28774;SDS011;15926;51.348;6.596;2022-12-18T12:23:22;10.82;;;6.90;;
28774;SDS011;15926;51.348;6.596;2022-12-18T12:25:53;14.00;;;6.88;;
28774;SDS011;15926;51.348;6.596;2022-12-18T12:35:52;11.05;;;6.70;;
28774;SDS011;15926;51.348;6.596;2022-12-18T12:40:48;13.88;;;7.40;;
28774;SDS011;15926;51.348;6.596;2022-12-18T12:43:23;10.98;;;6.60;;
28774;SDS011;15926;51.348;6.596;2022-12-18T12:48:38;13.50;;;7.38;;
28774;SDS011;15926;51.348;6.596;2022-12-18T12:53:50;12.82;;;6.85;;
28774;SDS011;15926;51.348;6.596;2022-12-18T12:56:17;14.00;;;7.50;;
28774;SDS011;15926;51.348;6.596;2022-12-18T13:01:32;14.95;;;8.18;;
28774;SDS011;15926;51.348;6.596;2022-12-18T13:12:28;17.02;;;8.32;;
28774;SDS011;15926;51.348;6.596;2022-12-18T13:15:20;15.77;;;7.90;;
28774;SDS011;15926;51.348;6.596;2022-12-18T13:17:47;15.25;;;8.55;;
28774;SDS011;15926;51.348;6.596;2022-12-18T13:20:14;14.63;;;8.25;;
28774;SDS011;15926;51.348;6.596;2022-12-18T13:22:43;13.03;;;7.47;;
28774;SDS011;15926;51.348;6.596;2022-12-18T13:25:35;15.57;;;8.07;;
28774;SDS011;15926;51.348;6.596;2022-12-18T13:28:14;15.85;;;8.43;;
28774;SDS011;15926;51.348;6.596;2022-12-18T13:43:26;15.70;;;7.75;;
28774;SDS011;15926;51.348;6.596;2022-12-18T13:48:56;17.05;;;8.63;;
28774;SDS011;15926;51.348;6.596;2022-12-18T13:51:23;16.45;;;7.50;;
28774;SDS011;15926;51.348;6.596;2022-12-18T13:53:59;18.73;;;8.82;;
28774;SDS011;15926;51.348;6.596;2022-12-18T13:56:27;17.63;;;8.40;;
28774;SDS011;15926;51.348;6.596;2022-12-18T14:01:54;14.90;;;7.20;;
28774;SDS011;15926;51.348;6.596;2022-12-18T14:06:56;22.05;;;9.20;;
28774;SDS011;15926;51.348;6.596;2022-12-18T14:09:26;22.02;;;9.65;;
28774;SDS011;15926;51.348;6.596;2022-12-18T14:11:53;18.90;;;9.45;;
28774;SDS011;15926;51.348;6.596;2022-12-18T14:14:41;18.55;;;8.38;;
28774;SDS011;15926;51.348;6.596;2022-12-18T14:17:09;17.98;;;9.40;;
28774;SDS011;15926;51.348;6.596;2022-12-18T14:19:40;20.33;;;9.63;;
28774;SDS011;15926;51.348;6.596;2022-12-18T14:22:15;18.63;;;9.60;;
28774;SDS011;15926;51.348;6.596;2022-12-18T14:24:42;20.98;;;9.38;;
28774;SDS011;15926;51.348;6.596;2022-12-18T14:27:27;19.13;;;9.68;;
28774;SDS011;15926;51.348;6.596;2022-12-18T14:29:53;17.23;;;9.63;;
28774;SDS011;15926;51.348;6.596;2022-12-18T14:32:22;18.58;;;9.23;;
28774;SDS011;15926;51.348;6.596;2022-12-18T14:37:23;21.33;;;9.20;;
28774;SDS011;15926;51.348;6.596;2022-12-18T14:39:58;17.88;;;8.88;;
28774;SDS011;15926;51.348;6.596;2022-12-18T14:42:31;21.42;;;9.82;;
28774;SDS011;15926;51.348;6.596;2022-12-18T14:47:32;18.38;;;9.35;;
28774;SDS011;15926;51.348;6.596;2022-12-18T14:49:58;20.73;;;9.63;;
28774;SDS011;15926;51.348;6.596;2022-12-18T14:52:27;23.17;;;10.25;;
28774;SDS011;15926;51.348;6.596;2022-12-18T14:54:53;21.55;;;10.25;;
28774;SDS011;15926;51.348;6.596;2022-12-18T14:57:24;21.50;;;9.63;;
28774;SDS011;15926;51.348;6.596;2022-12-18T14:59:51;19.50;;;9.55;;
28774;SDS011;15926;51.348;6.596;2022-12-18T15:02:27;18.27;;;9.23;;
28774;SDS011;15926;51.348;6.596;2022-12-18T15:05:04;17.52;;;9.20;;
28774;SDS011;15926;51.348;6.596;2022-12-18T15:07:43;19.77;;;9.38;;
28774;SDS011;15926;51.348;6.596;2022-12-18T15:10:12;21.05;;;9.90;;
28774;SDS011;15926;51.348;6.596;2022-12-18T15:12:40;19.73;;;9.48;;
28774;SDS011;15926;51.348;6.596;2022-12-18T15:18:05;18.55;;;9.85;;
28774;SDS011;15926;51.348;6.596;2022-12-18T15:20:40;19.85;;;10.43;;
28774;SDS011;15926;51.348;6.596;2022-12-18T15:25:42;19.65;;;9.57;;
28774;SDS011;15926;51.348;6.596;2022-12-18T15:28:19;22.52;;;10.25;;
28774;SDS011;15926;51.348;6.596;2022-12-18T15:30:57;20.55;;;9.25;;
28774;SDS011;15926;51.348;6.596;2022-12-18T15:33:25;24.65;;;10.57;;
28774;SDS011;15926;51.348;6.596;2022-12-18T15:35:59;25.20;;;11.03;;
28774;SDS011;15926;51.348;6.596;2022-12-18T15:38:29;22.40;;;10.88;;
28774;SDS011;15926;51.348;6.596;2022-12-18T15:41:01;23.48;;;10.93;;
28774;SDS011;15926;51.348;6.596;2022-12-18T15:43:31;23.05;;;10.52;;
28774;SDS011;15926;51.348;6.596;2022-12-18T15:46:04;20.40;;;10.35;;
28774;SDS011;15926;51.348;6.596;2022-12-18T15:48:34;22.00;;;9.80;;
28774;SDS011;15926;51.348;6.596;2022-12-18T15:51:01;26.25;;;11.52;;
28774;SDS011;15926;51.348;6.596;2022-12-18T15:53:28;21.95;;;9.88;;
28774;SDS011;15926;51.348;6.596;2022-12-18T15:55:55;19.10;;;10.02;;
28774;SDS011;15926;51.348;6.596;2022-12-18T15:58:40;25.40;;;12.40;;
28774;SDS011;15926;51.348;6.596;2022-12-18T16:01:07;24.48;;;11.55;;
28774;SDS011;15926;51.348;6.596;2022-12-18T16:03:34;22.58;;;10.68;;
28774;SDS011;15926;51.348;6.596;2022-12-18T16:06:00;20.15;;;9.82;;
28774;SDS011;15926;51.348;6.596;2022-12-18T16:08:27;24.55;;;11.05;;
28774;SDS011;15926;51.348;6.596;2022-12-18T16:10:54;21.52;;;9.88;;
28774;SDS011;15926;51.348;6.596;2022-12-18T16:13:20;22.10;;;10.68;;
28774;SDS011;15926;51.348;6.596;2022-12-18T16:15:46;21.30;;;10.63;;
28774;SDS011;15926;51.348;6.596;2022-12-18T16:18:12;21.98;;;11.10;;
28774;SDS011;15926;51.348;6.596;2022-12-18T16:20:38;22.92;;;10.73;;
28774;SDS011;15926;51.348;6.596;2022-12-18T16:23:04;23.73;;;11.77;;
28774;SDS011;15926;51.348;6.596;2022-12-18T16:25:30;21.08;;;11.38;;
28774;SDS011;15926;51.348;6.596;2022-12-18T16:27:56;25.23;;;11.23;;
28774;SDS011;15926;51.348;6.596;2022-12-18T16:30:29;30.88;;;13.07;;
28774;SDS011;15926;51.348;6.596;2022-12-18T16:32:56;26.88;;;12.45;;
28774;SDS011;15926;51.348;6.596;2022-12-18T16:35:22;29.08;;;12.23;;
28774;SDS011;15926;51.348;6.596;2022-12-18T16:37:49;32.13;;;13.23;;
28774;SDS011;15926;51.348;6.596;2022-12-18T16:40:15;26.83;;;12.15;;
28774;SDS011;15926;51.348;6.596;2022-12-18T16:42:42;35.85;;;13.43;;
28774;SDS011;15926;51.348;6.596;2022-12-18T16:45:09;27.80;;;13.23;;
28774;SDS011;15926;51.348;6.596;2022-12-18T16:47:36;22.25;;;11.73;;
28774;SDS011;15926;51.348;6.596;2022-12-18T16:50:03;26.75;;;11.98;;
28774;SDS011;15926;51.348;6.596;2022-12-18T16:52:29;31.15;;;13.32;;
28774;SDS011;15926;51.348;6.596;2022-12-18T16:54:55;25.77;;;12.27;;
28774;SDS011;15926;51.348;6.596;2022-12-18T16:57:21;26.95;;;12.80;;
28774;SDS011;15926;51.348;6.596;2022-12-18T16:59:48;25.52;;;11.98;;
28774;SDS011;15926;51.348;6.596;2022-12-18T17:02:23;25.17;;;12.07;;
28774;SDS011;15926;51.348;6.596;2022-12-18T17:05:39;27.98;;;12.20;;
28774;SDS011;15926;51.348;6.596;2022-12-18T17:08:05;24.83;;;12.23;;
28774;SDS011;15926;51.348;6.596;2022-12-18T17:10:31;27.92;;;12.10;;
28774;SDS011;15926;51.348;6.596;2022-12-18T17:12:59;26.63;;;12.40;;
28774;SDS011;15926;51.348;6.596;2022-12-18T17:15:25;26.35;;;12.73;;
28774;SDS011;15926;51.348;6.596;2022-12-18T17:17:51;26.23;;;11.75;;
28774;SDS011;15926;51.348;6.596;2022-12-18T17:20:17;27.08;;;13.02;;
28774;SDS011;15926;51.348;6.596;2022-12-18T17:22:43;29.33;;;12.88;;
28774;SDS011;15926;51.348;6.596;2022-12-18T17:25:09;29.27;;;12.73;;
28774;SDS011;15926;51.348;6.596;2022-12-18T17:27:35;31.38;;;14.02;;
28774;SDS011;15926;51.348;6.596;2022-12-18T17:30:01;28.15;;;12.80;;
28774;SDS011;15926;51.348;6.596;2022-12-18T17:32:27;24.23;;;13.07;;
28774;SDS011;15926;51.348;6.596;2022-12-18T17:35:00;28.45;;;13.05;;
28774;SDS011;15926;51.348;6.596;2022-12-18T17:37:49;31.65;;;13.98;;
28774;SDS011;15926;51.348;6.596;2022-12-18T17:40:15;29.38;;;13.80;;
28774;SDS011;15926;51.348;6.596;2022-12-18T17:42:41;25.50;;;12.32;;
28774;SDS011;15926;51.348;6.596;2022-12-18T17:45:08;34.25;;;14.30;;
28774;SDS011;15926;51.348;6.596;2022-12-18T17:47:34;36.50;;;14.05;;
28774;SDS011;15926;51.348;6.596;2022-12-18T17:50:12;33.28;;;15.25;;
28774;SDS011;15926;51.348;6.596;2022-12-18T17:53:19;31.10;;;13.02;;
28774;SDS011;15926;51.348;6.596;2022-12-18T17:55:52;29.30;;;14.63;;
28774;SDS011;15926;51.348;6.596;2022-12-18T17:58:19;33.45;;;12.95;;
28774;SDS011;15926;51.348;6.596;2022-12-18T18:00:45;30.33;;;13.77;;
28774;SDS011;15926;51.348;6.596;2022-12-18T18:03:11;31.85;;;14.82;;
28774;SDS011;15926;51.348;6.596;2022-12-18T18:05:37;28.48;;;13.85;;
28774;SDS011;15926;51.348;6.596;2022-12-18T18:08:03;36.30;;;14.82;;
28774;SDS011;15926;51.348;6.596;2022-12-18T18:10:29;29.67;;;14.07;;
28774;SDS011;15926;51.348;6.596;2022-12-18T18:12:57;33.83;;;14.68;;
28774;SDS011;15926;51.348;6.596;2022-12-18T18:15:41;33.58;;;15.15;;
28774;SDS011;15926;51.348;6.596;2022-12-18T18:18:07;35.72;;;15.27;;
28774;SDS011;15926;51.348;6.596;2022-12-18T18:20:37;32.58;;;14.02;;
28774;SDS011;15926;51.348;6.596;2022-12-18T18:23:04;30.67;;;13.98;;
28774;SDS011;15926;51.348;6.596;2022-12-18T18:25:30;37.25;;;16.10;;
28774;SDS011;15926;51.348;6.596;2022-12-18T18:27:56;34.22;;;15.30;;
28774;SDS011;15926;51.348;6.596;2022-12-18T18:30:22;31.40;;;14.20;;
28774;SDS011;15926;51.348;6.596;2022-12-18T18:32:48;34.83;;;14.35;;
28774;SDS011;15926;51.348;6.596;2022-12-18T18:35:14;36.40;;;15.45;;
28774;SDS011;15926;51.348;6.596;2022-12-18T18:37:40;31.05;;;14.13;;
28774;SDS011;15926;51.348;6.596;2022-12-18T18:40:06;34.75;;;14.90;;
28774;SDS011;15926;51.348;6.596;2022-12-18T18:45:32;36.80;;;15.25;;
28774;SDS011;15926;51.348;6.596;2022-12-18T18:47:58;34.45;;;14.57;;
28774;SDS011;15926;51.348;6.596;2022-12-18T18:50:24;36.35;;;15.68;;
28774;SDS011;15926;51.348;6.596;2022-12-18T18:52:51;29.77;;;14.05;;
28774;SDS011;15926;51.348;6.596;2022-12-18T18:55:17;37.05;;;15.13;;
28774;SDS011;15926;51.348;6.596;2022-12-18T18:57:43;35.42;;;15.90;;
28774;SDS011;15926;51.348;6.596;2022-12-18T19:00:09;37.05;;;14.70;;
28774;SDS011;15926;51.348;6.596;2022-12-18T19:02:36;34.67;;;16.00;;
28774;SDS011;15926;51.348;6.596;2022-12-18T19:05:05;39.95;;;15.02;;
28774;SDS011;15926;51.348;6.596;2022-12-18T19:07:40;34.88;;;13.93;;
28774;SDS011;15926;51.348;6.596;2022-12-18T19:10:07;33.15;;;15.43;;
28774;SDS011;15926;51.348;6.596;2022-12-18T19:12:33;34.92;;;15.27;;
28774;SDS011;15926;51.348;6.596;2022-12-18T19:15:17;32.72;;;13.38;;
28774;SDS011;15926;51.348;6.596;2022-12-18T19:17:43;30.98;;;14.52;;
28774;SDS011;15926;51.348;6.596;2022-12-18T19:20:09;41.70;;;16.55;;
28774;SDS011;15926;51.348;6.596;2022-12-18T19:22:35;36.25;;;15.18;;
28774;SDS011;15926;51.348;6.596;2022-12-18T19:25:01;32.58;;;15.20;;
28774;SDS011;15926;51.348;6.596;2022-12-18T19:27:28;37.15;;;14.35;;
28774;SDS011;15926;51.348;6.596;2022-12-18T19:29:54;36.03;;;15.98;;
28774;SDS011;15926;51.348;6.596;2022-12-18T19:32:20;34.75;;;15.45;;
28774;SDS011;15926;51.348;6.596;2022-12-18T19:34:46;37.08;;;15.13;;
28774;SDS011;15926;51.348;6.596;2022-12-18T19:37:12;32.67;;;15.45;;
28774;SDS011;15926;51.348;6.596;2022-12-18T19:39:38;35.30;;;13.93;;
28774;SDS011;15926;51.348;6.596;2022-12-18T19:42:07;38.80;;;16.50;;
28774;SDS011;15926;51.348;6.596;2022-12-18T19:45:00;41.63;;;15.75;;
28774;SDS011;15926;51.348;6.596;2022-12-18T19:47:42;43.97;;;17.30;;
28774;SDS011;15926;51.348;6.596;2022-12-18T19:50:08;37.38;;;15.73;;
28774;SDS011;15926;51.348;6.596;2022-12-18T19:52:34;43.55;;;16.45;;
28774;SDS011;15926;51.348;6.596;2022-12-18T19:55:01;34.40;;;16.08;;
28774;SDS011;15926;51.348;6.596;2022-12-18T19:57:27;43.30;;;17.23;;
28774;SDS011;15926;51.348;6.596;2022-12-18T19:59:53;35.10;;;15.45;;
28774;SDS011;15926;51.348;6.596;2022-12-18T20:02:19;33.70;;;14.80;;
28774;SDS011;15926;51.348;6.596;2022-12-18T20:04:45;36.15;;;15.52;;
28774;SDS011;15926;51.348;6.596;2022-12-18T20:07:11;37.38;;;15.40;;
28774;SDS011;15926;51.348;6.596;2022-12-18T20:09:37;38.45;;;15.35;;
28774;SDS011;15926;51.348;6.596;2022-12-18T20:12:03;36.47;;;15.18;;
28774;SDS011;15926;51.348;6.596;2022-12-18T20:14:29;39.65;;;14.77;;
28774;SDS011;15926;51.348;6.596;2022-12-18T20:16:55;36.50;;;14.73;;
28774;SDS011;15926;51.348;6.596;2022-12-18T20:19:21;38.38;;;15.98;;
28774;SDS011;15926;51.348;6.596;2022-12-18T20:24:51;40.67;;;15.52;;
28774;SDS011;15926;51.348;6.596;2022-12-18T20:27:17;34.47;;;15.70;;
28774;SDS011;15926;51.348;6.596;2022-12-18T20:29:43;40.75;;;15.75;;
28774;SDS011;15926;51.348;6.596;2022-12-18T20:32:09;34.72;;;14.10;;
28774;SDS011;15926;51.348;6.596;2022-12-18T20:34:35;42.03;;;15.43;;
28774;SDS011;15926;51.348;6.596;2022-12-18T20:37:01;36.92;;;14.52;;
28774;SDS011;15926;51.348;6.596;2022-12-18T20:39:27;40.55;;;15.18;;
28774;SDS011;15926;51.348;6.596;2022-12-18T20:41:54;35.78;;;14.60;;
28774;SDS011;15926;51.348;6.596;2022-12-18T20:44:20;37.55;;;14.82;;
28774;SDS011;15926;51.348;6.596;2022-12-18T20:46:46;38.72;;;16.08;;
28774;SDS011;15926;51.348;6.596;2022-12-18T20:49:12;33.75;;;14.93;;
28774;SDS011;15926;51.348;6.596;2022-12-18T20:51:38;34.05;;;16.02;;
28774;SDS011;15926;51.348;6.596;2022-12-18T20:54:04;37.38;;;15.48;;
28774;SDS011;15926;51.348;6.596;2022-12-18T20:56:30;33.80;;;15.40;;
28774;SDS011;15926;51.348;6.596;2022-12-18T20:58:57;38.03;;;15.77;;
28774;SDS011;15926;51.348;6.596;2022-12-18T21:01:24;39.88;;;14.73;;
28774;SDS011;15926;51.348;6.596;2022-12-18T21:03:50;34.83;;;15.27;;
28774;SDS011;15926;51.348;6.596;2022-12-18T21:09:27;32.95;;;14.10;;
28774;SDS011;15926;51.348;6.596;2022-12-18T21:15:38;32.63;;;13.98;;
28774;SDS011;15926;51.348;6.596;2022-12-18T21:18:04;34.47;;;14.95;;
28774;SDS011;15926;51.348;6.596;2022-12-18T21:20:30;36.10;;;15.65;;
28774;SDS011;15926;51.348;6.596;2022-12-18T21:22:56;41.85;;;15.00;;
28774;SDS011;15926;51.348;6.596;2022-12-18T21:25:26;34.55;;;14.73;;
28774;SDS011;15926;51.348;6.596;2022-12-18T21:27:52;39.45;;;15.07;;
28774;SDS011;15926;51.348;6.596;2022-12-18T21:30:18;41.13;;;15.82;;
28774;SDS011;15926;51.348;6.596;2022-12-18T21:32:44;34.67;;;14.90;;
28774;SDS011;15926;51.348;6.596;2022-12-18T21:35:10;37.83;;;14.98;;
28774;SDS011;15926;51.348;6.596;2022-12-18T21:37:40;34.15;;;14.90;;
28774;SDS011;15926;51.348;6.596;2022-12-18T21:41:04;38.53;;;14.40;;
28774;SDS011;15926;51.348;6.596;2022-12-18T21:43:51;33.75;;;15.13;;
28774;SDS011;15926;51.348;6.596;2022-12-18T21:46:36;35.35;;;15.57;;